Time;durP1;ratioP1;P1;durP2;ratioP2;P2;SDS_P1;SDS_P2;PMS_P1;PMS_P2;Temp;Humidity;BMP_temperature;BMP_pressure;BME280_temperature;BME280_humidity;BME280_pressure;Samples;Min_cycle;Max_cycle;Signal;HPM_P1;HPM_P2
2021/04/15 00:02:05;;;;;;;18.92;8.95;;;1.50;99.90;;;;;;5023270;28;20038;-77
2021/04/15 00:04:30;;;;;;;15.95;8.68;;;1.40;99.90;;;;;;5016841;28;20049;-77
2021/04/15 00:06:56;;;;;;;24.27;10.18;;;1.40;99.90;;;;;;5021615;28;20034;-77
2021/04/15 00:09:23;;;;;;;23.25;9.20;;;1.40;99.90;;;;;;5018836;28;20090;-77
2021/04/15 00:11:49;;;;;;;18.38;9.73;;;1.40;99.90;;;;;;5025192;28;20156;-76
2021/04/15 00:14:19;;;;;;;15.45;8.93;;;1.40;99.90;;;;;;5029145;28;20614;-76
2021/04/15 00:16:45;;;;;;;17.73;9.32;;;1.40;99.90;;;;;;5016054;28;20041;-76
2021/04/15 00:19:12;;;;;;;19.55;9.65;;;1.30;99.90;;;;;;5013055;28;20100;-76
2021/04/15 00:21:38;;;;;;;17.25;9.40;;;1.30;99.90;;;;;;5020517;28;20046;-76
2021/04/15 00:24:04;;;;;;;15.82;9.35;;;1.30;99.90;;;;;;5015589;28;20033;-76
2021/04/15 00:26:30;;;;;;;21.02;10.48;;;1.20;99.90;;;;;;5022316;28;20404;-76
2021/04/15 00:28:56;;;;;;;22.73;9.85;;;1.20;99.90;;;;;;5019786;28;20081;-77
2021/04/15 00:31:23;;;;;;;25.13;10.70;;;1.20;99.90;;;;;;5017843;28;20041;-76
2021/04/15 00:33:50;;;;;;;20.05;9.35;;;1.20;99.90;;;;;;5024652;28;20877;-77
2021/04/15 00:36:16;;;;;;;21.15;10.80;;;1.10;99.90;;;;;;5016754;28;20073;-77
2021/04/15 00:38:41;;;;;;;17.27;9.55;;;1.10;99.90;;;;;;5021682;28;20141;-76
2021/04/15 00:41:10;;;;;;;16.92;10.68;;;1.20;99.90;;;;;;5014558;28;20042;-77
2021/04/15 00:43:39;;;;;;;20.08;10.68;;;1.00;99.90;;;;;;5025280;28;20037;-77
2021/04/15 00:46:37;;;;;;;23.85;10.45;;;1.00;99.90;;;;;;5024603;28;20851;-76
2021/04/15 00:49:03;;;;;;;18.15;10.45;;;1.00;99.90;;;;;;5007337;28;20045;-77
2021/04/15 00:51:37;;;;;;;21.05;11.10;;;1.10;99.90;;;;;;5015010;28;20046;-74
2021/04/15 00:54:06;;;;;;;22.23;11.40;;;1.00;99.90;;;;;;5015323;28;20061;-77
2021/04/15 00:56:33;;;;;;;24.58;11.50;;;1.00;99.90;;;;;;5015116;28;20033;-77
2021/04/15 00:58:58;;;;;;;28.08;11.68;;;0.90;99.90;;;;;;5013963;28;20084;-76
2021/04/15 01:01:25;;;;;;;21.25;10.98;;;0.90;99.90;;;;;;5014175;28;20132;-76
2021/04/15 01:03:50;;;;;;;22.98;11.15;;;0.90;99.90;;;;;;5012349;28;20041;-77
2021/04/15 01:06:16;;;;;;;19.75;10.90;;;0.90;99.90;;;;;;5013795;28;20660;-77
2021/04/15 01:08:42;;;;;;;23.75;11.70;;;0.80;99.90;;;;;;5014984;28;20025;-77
2021/04/15 01:11:29;;;;;;;21.58;11.52;;;0.90;99.90;;;;;;5014367;28;20032;-77
2021/04/15 01:14:09;;;;;;;25.33;11.13;;;0.80;99.90;;;;;;5016863;28;20053;-77
2021/04/15 01:16:40;;;;;;;22.88;12.80;;;0.80;99.90;;;;;;5019980;28;20627;-77
2021/04/15 01:19:24;;;;;;;23.38;10.88;;;0.80;99.90;;;;;;5018860;28;20062;-75
2021/04/15 01:22:00;;;;;;;24.63;12.50;;;0.80;99.90;;;;;;5016549;28;20520;-75
2021/04/15 01:24:40;;;;;;;19.27;11.10;;;0.80;99.90;;;;;;5017970;28;20048;-77
2021/04/15 01:27:21;;;;;;;23.50;11.55;;;0.70;99.90;;;;;;5018824;28;20046;-76
2021/04/15 01:30:10;;;;;;;20.48;11.13;;;0.70;99.90;;;;;;5017366;28;20105;-76
2021/04/15 01:32:46;;;;;;;20.35;11.23;;;0.70;99.90;;;;;;5017023;28;20133;-76
2021/04/15 01:35:32;;;;;;;23.65;11.30;;;0.70;99.90;;;;;;5018386;28;20052;-75
2021/04/15 01:38:07;;;;;;;22.75;11.20;;;0.70;99.90;;;;;;5029961;28;20511;-75
2021/04/15 01:40:43;;;;;;;24.08;12.20;;;0.70;99.90;;;;;;5025479;28;20700;-75
2021/04/15 01:43:20;;;;;;;20.02;10.70;;;0.60;99.90;;;;;;5024345;28;20103;-75
2021/04/15 01:45:49;;;;;;;20.73;10.48;;;0.60;99.90;;;;;;5028244;28;20033;-76
2021/04/15 01:48:19;;;;;;;22.65;11.35;;;0.50;99.90;;;;;;5022906;28;20037;-76
2021/04/15 01:50:52;;;;;;;18.52;10.77;;;0.50;99.90;;;;;;5022473;28;20091;-75
2021/04/15 01:53:28;;;;;;;17.65;10.20;;;0.50;99.90;;;;;;5025512;28;20072;-75
2021/04/15 01:56:01;;;;;;;19.17;10.88;;;0.60;99.90;;;;;;5032699;28;20037;-76
2021/04/15 01:58:38;;;;;;;17.83;10.00;;;0.60;99.90;;;;;;5027640;28;20045;-75
2021/04/15 02:01:10;;;;;;;21.33;11.10;;;0.50;99.90;;;;;;5022785;28;20033;-76
2021/04/15 02:03:37;;;;;;;24.52;11.82;;;0.50;99.90;;;;;;5022655;28;20122;-76
2021/04/15 02:06:08;;;;;;;20.80;11.20;;;0.50;99.90;;;;;;5027984;28;20056;-76
2021/04/15 02:08:40;;;;;;;20.25;10.65;;;0.50;99.90;;;;;;5026176;28;20722;-76
2021/04/15 02:11:18;;;;;;;24.50;11.00;;;0.50;99.90;;;;;;5023887;28;20053;-76
2021/04/15 02:13:45;;;;;;;23.05;11.43;;;0.40;99.90;;;;;;5021415;28;20467;-77
2021/04/15 02:16:18;;;;;;;18.73;9.63;;;0.40;99.90;;;;;;5023866;28;20449;-75
2021/04/15 02:18:51;;;;;;;22.38;11.60;;;0.40;99.90;;;;;;5030871;28;20138;-76
2021/04/15 02:21:27;;;;;;;22.50;10.93;;;0.40;99.90;;;;;;5021814;28;20091;-75
2021/04/15 02:24:02;;;;;;;22.20;10.73;;;0.40;99.90;;;;;;5023293;28;20518;-76
2021/04/15 02:26:37;;;;;;;18.50;10.23;;;0.40;99.90;;;;;;5024359;28;21677;-76
2021/04/15 02:29:15;;;;;;;18.98;10.65;;;0.40;99.90;;;;;;5024220;28;20677;-76
2021/04/15 02:32:05;;;;;;;24.60;11.63;;;0.40;99.90;;;;;;5029960;28;20124;-76
2021/04/15 02:34:42;;;;;;;21.88;10.60;;;0.40;99.90;;;;;;5025927;28;20052;-76
2021/04/15 02:37:26;;;;;;;23.55;11.10;;;0.40;99.90;;;;;;5024852;28;20033;-76
2021/04/15 02:39:59;;;;;;;24.15;11.70;;;0.30;99.90;;;;;;5033726;28;20038;-76
2021/04/15 02:42:27;;;;;;;21.15;10.70;;;0.40;99.90;;;;;;5027912;28;20525;-76
2021/04/15 02:45:00;;;;;;;19.80;10.77;;;0.30;99.90;;;;;;5024017;28;20037;-76
2021/04/15 02:47:41;;;;;;;21.70;9.82;;;0.30;99.90;;;;;;5024033;28;20033;-76
2021/04/15 02:50:11;;;;;;;20.80;10.25;;;0.40;99.90;;;;;;5017779;28;20033;-76
2021/04/15 02:52:41;;;;;;;19.30;9.68;;;0.30;99.90;;;;;;5022695;28;20567;-76
2021/04/15 02:55:17;;;;;;;23.63;10.68;;;0.40;99.90;;;;;;5015988;28;20520;-76
2021/04/15 02:57:49;;;;;;;20.92;10.50;;;0.30;99.90;;;;;;5018517;28;20026;-76
2021/04/15 03:00:23;;;;;;;19.35;9.00;;;0.30;99.90;;;;;;5027655;28;20040;-76
2021/04/15 03:03:02;;;;;;;18.88;9.00;;;0.20;99.90;;;;;;5022446;28;20033;-76
2021/04/15 03:05:31;;;;;;;18.40;8.88;;;0.20;99.90;;;;;;5026322;28;20403;-76
2021/04/15 03:07:59;;;;;;;18.92;9.93;;;0.20;99.90;;;;;;5023693;28;20029;-76
2021/04/15 03:10:36;;;;;;;12.90;8.30;;;0.20;99.90;;;;;;5023823;28;20104;-77
2021/04/15 03:13:10;;;;;;;24.67;8.82;;;0.20;99.90;;;;;;5022651;28;20113;-77
2021/04/15 03:15:59;;;;;;;17.48;9.05;;;0.10;99.90;;;;;;5016998;28;20042;-77
2021/04/15 03:18:44;;;;;;;17.75;9.20;;;0.10;99.90;;;;;;5013957;28;20037;-76
2021/04/15 03:21:44;;;;;;;16.42;7.82;;;0.10;99.90;;;;;;5030408;28;20061;-75
2021/04/15 03:24:26;;;;;;;16.33;7.97;;;0.10;99.90;;;;;;5022942;28;20034;-76
2021/04/15 03:27:07;;;;;;;20.25;8.48;;;0.10;99.90;;;;;;5020854;28;20528;-75
2021/04/15 03:29:59;;;;;;;14.98;8.13;;;0.10;99.90;;;;;;5032908;28;20423;-76
2021/04/15 03:32:51;;;;;;;17.45;8.05;;;0.00;99.90;;;;;;5010254;28;20046;-75
2021/04/15 03:35:27;;;;;;;15.23;8.05;;;0.10;99.90;;;;;;5018170;28;20041;-76
2021/04/15 03:38:02;;;;;;;17.67;7.85;;;0.00;99.90;;;;;;5021931;28;20504;-76
2021/04/15 03:40:30;;;;;;;16.65;8.63;;;0.00;99.90;;;;;;5017906;28;20037;-76
2021/04/15 03:43:05;;;;;;;14.40;7.45;;;0.00;99.90;;;;;;5020806;28;20570;-76
2021/04/15 03:45:33;;;;;;;18.27;7.70;;;0.00;99.90;;;;;;5019229;28;20047;-75
2021/04/15 03:48:05;;;;;;;15.05;8.10;;;0.00;99.90;;;;;;5020555;28;20483;-75
2021/04/15 03:50:49;;;;;;;12.65;6.72;;;-0.10;99.90;;;;;;5022645;28;20033;-76
2021/04/15 03:53:27;;;;;;;13.88;7.32;;;-0.10;99.90;;;;;;5021222;28;20612;-77
2021/04/15 03:56:00;;;;;;;12.60;6.57;;;-0.10;99.90;;;;;;5013175;28;20103;-76
2021/04/15 03:58:36;;;;;;;12.68;6.55;;;0.00;99.90;;;;;;5021884;28;20033;-76
2021/04/15 04:01:12;;;;;;;11.15;6.75;;;-0.10;99.90;;;;;;5027059;28;20116;-76
2021/04/15 04:03:40;;;;;;;13.40;6.43;;;-0.10;99.90;;;;;;5022190;28;20041;-76
2021/04/15 04:06:26;;;;;;;15.05;7.47;;;-0.10;99.90;;;;;;5017808;28;20037;-76
2021/04/15 04:09:04;;;;;;;16.65;7.00;;;-0.10;99.90;;;;;;5017071;28;20048;-75
2021/04/15 04:11:32;;;;;;;19.13;7.68;;;-0.10;99.90;;;;;;5011564;28;20037;-76
2021/04/15 04:14:05;;;;;;;22.77;8.05;;;-0.10;99.90;;;;;;5015907;28;20099;-75
2021/04/15 04:16:38;;;;;;;15.80;7.50;;;-0.10;99.90;;;;;;5020441;28;20038;-75
2021/04/15 04:19:36;;;;;;;17.80;7.20;;;-0.10;99.90;;;;;;5016958;28;20041;-76
2021/04/15 04:22:11;;;;;;;22.48;7.38;;;-0.10;99.90;;;;;;5006056;28;20037;-76
2021/04/15 04:25:17;;;;;;;13.45;6.40;;;-0.10;99.90;;;;;;5025763;28;20378;-76
2021/04/15 04:28:00;;;;;;;16.52;7.38;;;-0.10;99.90;;;;;;4987812;28;20037;-76
2021/04/15 04:30:42;;;;;;;16.85;6.43;;;-0.10;99.90;;;;;;5020583;28;20048;-76
2021/04/15 04:33:10;;;;;;;19.67;8.05;;;-0.10;99.90;;;;;;5020256;28;20151;-76
2021/04/15 04:35:40;;;;;;;14.75;6.70;;;-0.10;99.90;;;;;;5017934;28;20060;-76
2021/04/15 04:38:08;;;;;;;20.10;8.07;;;-0.10;99.90;;;;;;5021717;28;20038;-76
2021/04/15 04:40:53;;;;;;;18.98;7.43;;;-0.10;99.90;;;;;;5023845;28;20075;-77
2021/04/15 04:43:32;;;;;;;20.00;6.75;;;-0.10;99.90;;;;;;5015540;28;20088;-76
2021/04/15 04:46:04;;;;;;;16.45;7.40;;;-0.10;99.90;;;;;;5020372;28;20079;-76
2021/04/15 04:48:34;;;;;;;13.13;6.65;;;-0.10;99.90;;;;;;5022397;28;20173;-76
2021/04/15 04:51:06;;;;;;;13.15;6.28;;;-0.10;99.90;;;;;;5019075;28;20133;-76
2021/04/15 04:53:37;;;;;;;15.23;7.15;;;-0.10;99.90;;;;;;5030400;28;20531;-76
2021/04/15 04:56:16;;;;;;;17.17;6.53;;;-0.10;99.90;;;;;;5014541;28;20033;-76
2021/04/15 04:58:52;;;;;;;15.80;5.93;;;-0.10;99.90;;;;;;5011165;28;20036;-76
2021/04/15 05:01:18;;;;;;;15.02;6.03;;;0.00;99.90;;;;;;5022654;28;20124;-77
2021/04/15 05:03:43;;;;;;;12.88;5.85;;;0.00;99.90;;;;;;5020260;28;20076;-77
2021/04/15 05:06:18;;;;;;;16.60;7.13;;;0.00;99.90;;;;;;5013422;28;20061;-77
2021/04/15 05:08:55;;;;;;;16.40;6.50;;;0.00;99.90;;;;;;5010240;28;20630;-77
2021/04/15 05:11:22;;;;;;;18.23;6.30;;;0.00;99.90;;;;;;5015323;28;20465;-76
2021/04/15 05:13:48;;;;;;;12.50;5.93;;;0.00;99.90;;;;;;5020578;28;20519;-77
2021/04/15 05:16:14;;;;;;;13.25;5.97;;;0.00;99.90;;;;;;5017289;28;20091;-76
2021/04/15 05:18:40;;;;;;;11.68;6.18;;;0.00;99.90;;;;;;5023394;28;20038;-76
2021/04/15 05:21:32;;;;;;;13.35;5.63;;;0.10;99.90;;;;;;5027517;28;20052;-76
2021/04/15 05:24:12;;;;;;;11.98;6.32;;;0.20;99.90;;;;;;5002824;28;20407;-76
2021/04/15 05:26:40;;;;;;;14.90;6.18;;;0.20;99.90;;;;;;5012957;28;20054;-77
2021/04/15 05:29:09;;;;;;;15.60;5.80;;;0.30;99.90;;;;;;5013703;28;20041;-77
2021/04/15 05:31:41;;;;;;;11.38;6.00;;;0.20;99.90;;;;;;5020740;28;20044;-79
2021/04/15 05:34:18;;;;;;;10.82;6.35;;;0.30;99.90;;;;;;5024382;28;20041;-78
2021/04/15 05:36:44;;;;;;;13.38;6.45;;;0.30;99.90;;;;;;5028966;28;20477;-78
2021/04/15 05:39:16;;;;;;;11.02;5.25;;;0.40;99.90;;;;;;5029500;28;20129;-78
2021/04/15 05:42:00;;;;;;;14.30;5.63;;;0.50;99.90;;;;;;5031836;28;20048;-78
2021/04/15 05:44:54;;;;;;;10.40;5.63;;;0.60;99.90;;;;;;5046383;28;20033;-78
2021/04/15 05:47:30;;;;;;;12.30;5.30;;;0.70;99.90;;;;;;5054657;28;20021;-78
2021/04/15 05:50:11;;;;;;;13.23;5.68;;;0.80;99.90;;;;;;5036709;28;20018;-78
2021/04/15 05:52:41;;;;;;;12.55;5.70;;;1.00;99.90;;;;;;5042381;28;20022;-78
2021/04/15 05:55:15;;;;;;;12.25;5.63;;;1.10;99.90;;;;;;5046551;28;20071;-79
2021/04/15 05:57:47;;;;;;;11.07;5.15;;;1.30;99.90;;;;;;5028240;28;20078;-77
2021/04/15 06:00:22;;;;;;;12.82;5.93;;;1.30;99.90;;;;;;5048343;28;20036;-77
2021/04/15 06:02:57;;;;;;;9.40;5.55;;;1.40;99.90;;;;;;5046704;28;20021;-78
2021/04/15 06:05:50;;;;;;;17.02;5.90;;;1.50;99.90;;;;;;5040325;28;20068;-75
2021/04/15 06:08:16;;;;;;;13.95;5.88;;;1.70;99.90;;;;;;5023182;28;20516;-77
2021/04/15 06:10:44;;;;;;;9.98;5.60;;;1.80;99.90;;;;;;5024258;28;20125;-79
2021/04/15 06:13:33;;;;;;;10.65;5.65;;;2.00;99.90;;;;;;5013478;28;20120;-78
2021/04/15 06:16:04;;;;;;;12.88;5.45;;;2.10;99.90;;;;;;5016411;28;20045;-78
2021/04/15 06:18:41;;;;;;;16.75;5.90;;;2.20;99.90;;;;;;5015168;28;20037;-78
2021/04/15 06:21:21;;;;;;;17.05;5.43;;;2.30;99.90;;;;;;5013881;28;20037;-78
2021/04/15 06:23:56;;;;;;;11.25;5.50;;;2.40;99.90;;;;;;5017392;28;20037;-78
2021/04/15 06:26:39;;;;;;;8.57;4.45;;;2.50;99.90;;;;;;5025430;28;20028;-78
2021/04/15 06:29:22;;;;;;;11.60;5.25;;;2.50;99.90;;;;;;5036011;28;20041;-78
2021/04/15 06:31:52;;;;;;;15.98;7.28;;;2.60;99.90;;;;;;5028072;28;20036;-78
2021/04/15 06:34:18;;;;;;;20.17;5.82;;;2.80;99.90;;;;;;5013974;28;20049;-77
2021/04/15 06:37:03;;;;;;;12.65;5.60;;;2.80;99.90;;;;;;5017580;28;20117;-78
2021/04/15 06:39:36;;;;;;;20.10;5.13;;;2.80;99.90;;;;;;5021977;28;20037;-79
2021/04/15 06:42:40;;;;;;;15.13;5.45;;;2.90;99.80;;;;;;5026314;28;20102;-79
2021/04/15 06:45:21;;;;;;;14.15;4.75;;;3.00;98.50;;;;;;4950190;28;20039;-81
2021/04/15 06:47:55;;;;;;;10.70;4.32;;;3.20;97.40;;;;;;4938365;28;20058;-77
2021/04/15 06:50:41;;;;;;;8.93;4.80;;;3.30;94.90;;;;;;4991760;28;20044;-77
2021/04/15 06:53:23;;;;;;;13.55;4.72;;;4.10;94.60;;;;;;5027889;28;20042;-77
2021/04/15 06:55:56;;;;;;;14.35;4.90;;;4.70;88.70;;;;;;5029325;28;20033;-78
2021/04/15 06:58:31;;;;;;;17.35;5.32;;;5.10;81.20;;;;;;5030249;28;20038;-77
2021/04/15 07:01:15;;;;;;;14.45;4.72;;;6.00;79.00;;;;;;5031786;28;20040;-78
2021/04/15 07:04:02;;;;;;;9.52;4.57;;;6.50;74.30;;;;;;5027969;28;20038;-78
2021/04/15 07:06:52;;;;;;;14.57;3.92;;;7.10;68.90;;;;;;5031045;28;20037;-77
2021/04/15 07:09:34;;;;;;;14.75;4.38;;;7.00;64.40;;;;;;5042385;28;20084;-77
2021/04/15 07:12:50;;;;;;;9.55;3.97;;;7.20;64.90;;;;;;5032325;28;20376;-78
2021/04/15 07:15:53;;;;;;;9.32;3.78;;;7.70;63.50;;;;;;4961507;28;20516;-78
2021/04/15 07:18:43;;;;;;;12.10;4.55;;;7.40;62.20;;;;;;5030816;28;20072;-78
2021/04/15 07:21:34;;;;;;;13.95;4.25;;;7.40;61.00;;;;;;5054806;28;20033;-78
2021/04/15 07:24:25;;;;;;;13.18;4.28;;;7.50;60.50;;;;;;5033680;28;20044;-78
2021/04/15 07:27:29;;;;;;;18.10;4.38;;;7.80;60.30;;;;;;5026397;28;20033;-80
2021/04/15 07:30:17;;;;;;;23.27;4.07;;;7.90;58.00;;;;;;5015015;28;20088;-78
2021/04/15 07:32:52;;;;;;;10.40;4.38;;;7.50;57.80;;;;;;5026591;28;20033;-81
2021/04/15 07:35:43;;;;;;;10.40;4.18;;;7.70;58.30;;;;;;5027139;28;20208;-80
2021/04/15 07:38:44;;;;;;;10.43;3.65;;;7.70;57.40;;;;;;5026989;28;20037;-81
2021/04/15 07:41:37;;;;;;;13.52;4.03;;;7.20;57.00;;;;;;5010324;28;20038;-81
2021/04/15 07:44:20;;;;;;;10.52;3.63;;;7.10;56.40;;;;;;5019750;28;20137;-79
2021/04/15 07:46:58;;;;;;;8.95;3.67;;;7.10;57.40;;;;;;5024343;28;20397;-82
2021/04/15 07:50:10;;;;;;;13.20;4.05;;;7.10;56.10;;;;;;5023543;28;20026;-79
2021/04/15 07:52:48;;;;;;;11.75;4.68;;;7.30;58.10;;;;;;5022831;28;20072;-80
2021/04/15 07:55:51;;;;;;;9.07;4.15;;;7.20;57.50;;;;;;5041100;28;20113;-80
2021/04/15 07:58:26;;;;;;;14.52;4.70;;;7.50;57.10;;;;;;5032283;28;20026;-80
2021/04/15 08:00:57;;;;;;;11.88;4.50;;;7.50;55.80;;;;;;5022430;28;20036;-82
2021/04/15 08:04:18;;;;;;;10.55;4.57;;;7.70;54.50;;;;;;5017819;28;20041;-79
2021/04/15 08:07:07;;;;;;;14.70;4.35;;;7.40;55.40;;;;;;4974115;28;20050;-80
2021/04/15 08:09:52;;;;;;;15.20;4.32;;;7.10;55.80;;;;;;5024025;28;20048;-80
2021/04/15 08:12:32;;;;;;;11.00;4.80;;;7.40;55.30;;;;;;5035614;28;20037;-80
2021/04/15 08:15:20;;;;;;;11.88;4.43;;;7.20;56.90;;;;;;5027644;28;20037;-80
2021/04/15 08:18:20;;;;;;;16.58;5.15;;;7.30;54.30;;;;;;5056956;28;20041;-79
2021/04/15 08:21:09;;;;;;;10.43;4.57;;;7.50;54.50;;;;;;5035078;28;20044;-80
2021/04/15 08:24:04;;;;;;;8.45;3.50;;;7.50;54.60;;;;;;5030445;28;20034;-82
2021/04/15 08:26:41;;;;;;;10.60;4.40;;;7.20;54.20;;;;;;5000139;28;20499;-80
2021/04/15 08:29:40;;;;;;;10.98;4.78;;;7.50;53.70;;;;;;5027044;28;20059;-78
2021/04/15 08:32:24;;;;;;;12.05;4.25;;;7.70;53.10;;;;;;5029134;28;20088;-80
2021/04/15 08:35:20;;;;;;;9.90;4.60;;;8.10;50.20;;;;;;5026383;28;20065;-80
2021/04/15 08:38:11;;;;;;;7.72;4.53;;;8.50;49.50;;;;;;5047932;28;20038;-80
2021/04/15 08:40:52;;;;;;;7.10;4.78;;;8.70;48.00;;;;;;5028588;28;20054;-81
2021/04/15 08:43:43;;;;;;;9.95;5.30;;;9.40;45.40;;;;;;5031584;28;20030;-81
2021/04/15 08:46:17;;;;;;;12.23;4.97;;;9.60;41.60;;;;;;5035069;28;20033;-80
2021/04/15 08:49:01;;;;;;;12.85;4.90;;;9.80;39.30;;;;;;5035103;28;20030;-80
2021/04/15 08:51:46;;;;;;;14.57;4.70;;;10.60;35.80;;;;;;5038745;28;20025;-81
2021/04/15 08:54:12;;;;;;;7.18;3.33;;;11.60;35.00;;;;;;5042444;28;20042;-81
2021/04/15 08:56:56;;;;;;;11.63;4.60;;;11.50;28.50;;;;;;5039418;28;20452;-81
2021/04/15 08:59:37;;;;;;;;;;;11.70;28.10;;;;;;5046028;28;20075;-80
2021/04/15 09:02:23;;;;;;;7.57;4.43;;;12.00;28.80;;;;;;5036874;28;19917;-79
2021/04/15 09:05:01;;;;;;;10.30;4.55;;;12.00;26.60;;;;;;5025525;28;20829;-79
2021/04/15 09:07:44;;;;;;;6.32;3.92;;;11.60;27.20;;;;;;5039822;28;20045;-81
2021/04/15 09:10:32;;;;;;;8.18;3.83;;;11.90;26.90;;;;;;5033323;28;20033;-81
2021/04/15 09:13:23;;;;;;;7.68;4.07;;;12.50;26.50;;;;;;5041933;28;20046;-82
2021/04/15 09:15:49;;;;;;;12.68;4.50;;;12.40;26.40;;;;;;5056088;28;20025;-81
2021/04/15 09:18:20;;;;;;;9.88;4.18;;;12.40;25.90;;;;;;5039633;28;20111;-81
2021/04/15 09:21:12;;;;;;;6.70;3.58;;;13.60;24.10;;;;;;5032685;28;20036;-82
2021/04/15 09:24:02;;;;;;;10.52;4.57;;;13.30;23.30;;;;;;5032337;28;20038;-80
2021/04/15 09:26:54;;;;;;;12.57;4.13;;;13.90;23.00;;;;;;5031874;28;20026;-80
2021/04/15 09:29:43;;;;;;;10.68;3.80;;;14.50;21.00;;;;;;5020938;28;20033;-81
2021/04/15 09:32:32;;;;;;;11.23;4.43;;;13.60;18.60;;;;;;5037735;28;20037;-80
2021/04/15 09:35:37;;;;;;;13.20;4.65;;;13.50;20.80;;;;;;5021085;28;20034;-81
2021/04/15 09:38:28;;;;;;;7.55;3.58;;;14.20;20.30;;;;;;5017696;28;20755;-82
2021/04/15 09:41:25;;;;;;;7.65;3.58;;;14.50;19.30;;;;;;5027387;28;20037;-80
2021/04/15 09:44:21;;;;;;;9.30;3.88;;;14.80;17.60;;;;;;5020712;28;20048;-82
2021/04/15 09:47:00;;;;;;;9.25;3.17;;;14.60;19.20;;;;;;5022951;28;20041;-80
2021/04/15 09:49:57;;;;;;;10.07;4.53;;;16.10;18.20;;;;;;5028687;28;20050;-79
2021/04/15 09:52:46;;;;;;;6.38;3.30;;;15.90;15.20;;;;;;5020978;28;21251;-80
2021/04/15 09:55:30;;;;;;;7.15;3.20;;;15.80;15.70;;;;;;5019171;28;20042;-80
2021/04/15 09:58:21;;;;;;;5.88;2.95;;;13.40;18.40;;;;;;5045520;28;20064;-80
2021/04/15 10:00:52;;;;;;;4.32;2.63;;;13.20;17.90;;;;;;5020986;28;20101;-80
2021/04/15 10:03:42;;;;;;;5.72;2.47;;;13.90;16.80;;;;;;5027617;28;20049;-80
2021/04/15 10:06:18;;;;;;;8.30;2.20;;;15.40;14.60;;;;;;5031218;28;20051;-81
2021/04/15 10:09:23;;;;;;;11.70;2.13;;;15.20;13.10;;;;;;5036185;28;20087;-80
2021/04/15 10:12:00;;;;;;;4.95;2.38;;;16.80;12.80;;;;;;5037467;28;20358;-80
2021/04/15 10:14:48;;;;;;;3.80;2.22;;;15.00;13.70;;;;;;4993257;28;20179;-77
2021/04/15 10:17:37;;;;;;;4.88;2.08;;;14.30;16.00;;;;;;5009441;28;20522;-77
2021/04/15 10:20:37;;;;;;;6.30;2.40;;;12.90;16.60;;;;;;5012386;28;20295;-77
2021/04/15 10:23:26;;;;;;;6.65;2.58;;;14.10;15.90;;;;;;5031104;28;20038;-78
2021/04/15 10:26:00;;;;;;;7.68;2.42;;;14.20;16.20;;;;;;5012518;28;20076;-79
2021/04/15 10:28:59;;;;;;;5.68;2.42;;;13.00;19.20;;;;;;5018503;28;20116;-78
2021/04/15 10:32:21;;;;;;;3.80;2.15;;;12.50;21.70;;;;;;5021106;28;20038;-77
2021/04/15 10:35:06;;;;;;;7.60;3.65;;;11.40;24.10;;;;;;5023614;28;20050;-77
2021/04/15 10:38:25;;;;;;;6.40;2.80;;;10.40;24.80;;;;;;5040004;28;20099;-77
2021/04/15 10:41:11;;;;;;;4.38;2.50;;;10.70;26.40;;;;;;4995819;28;20049;-78
2021/04/15 10:44:08;;;;;;;4.90;2.22;;;10.80;28.00;;;;;;5018009;28;20072;-77
2021/04/15 10:46:50;;;;;;;4.25;1.92;;;11.60;23.90;;;;;;5014544;28;20037;-77
2021/04/15 10:49:37;;;;;;;6.57;2.42;;;12.10;21.00;;;;;;5018641;28;20038;-78
2021/04/15 10:52:40;;;;;;;4.25;2.30;;;13.50;20.30;;;;;;5025021;28;20041;-79
2021/04/15 10:55:18;;;;;;;5.00;2.47;;;14.50;17.20;;;;;;5018514;28;20041;-79
2021/04/15 10:57:44;;;;;;;5.68;2.95;;;15.30;15.10;;;;;;5038049;28;20052;-79
2021/04/15 11:00:26;;;;;;;4.28;2.38;;;15.40;14.30;;;;;;5024142;28;20048;-78
2021/04/15 11:02:55;;;;;;;6.32;2.45;;;14.20;16.20;;;;;;5026295;28;20048;-79
2021/04/15 11:05:28;;;;;;;9.07;3.00;;;13.90;17.10;;;;;;5021973;28;20049;-79
2021/04/15 11:08:04;;;;;;;9.57;2.55;;;14.00;17.40;;;;;;5009910;28;20045;-79
2021/04/15 11:10:31;;;;;;;6.40;2.63;;;12.70;18.10;;;;;;5025910;28;21254;-78
2021/04/15 11:13:18;;;;;;;3.70;2.42;;;11.70;19.00;;;;;;5024053;28;20301;-78
2021/04/15 11:15:51;;;;;;;12.30;2.70;;;10.90;21.60;;;;;;5026827;28;20025;-78
2021/04/15 11:18:25;;;;;;;6.65;2.08;;;11.00;21.50;;;;;;5016475;28;20041;-78
2021/04/15 11:20:52;;;;;;;8.95;2.40;;;11.40;20.30;;;;;;5030493;28;20040;-78
2021/04/15 11:23:18;;;;;;;3.08;2.03;;;13.20;19.00;;;;;;5022382;28;20070;-77
2021/04/15 11:25:51;;;;;;;7.88;2.20;;;13.20;17.00;;;;;;5021974;28;20700;-78
2021/04/15 11:28:23;;;;;;;6.00;2.47;;;12.00;17.50;;;;;;5038386;28;20033;-77
2021/04/15 11:30:57;;;;;;;7.78;2.00;;;11.40;17.90;;;;;;5024198;28;21173;-78
2021/04/15 11:33:46;;;;;;;4.43;1.98;;;12.10;18.80;;;;;;5030000;28;20077;-78
2021/04/15 11:36:29;;;;;;;6.88;1.85;;;13.80;17.30;;;;;;5017962;28;20041;-78
2021/04/15 11:39:04;;;;;;;5.40;2.13;;;15.50;15.70;;;;;;5024829;28;20028;-79
2021/04/15 11:41:33;;;;;;;7.07;2.00;;;16.20;14.40;;;;;;5038091;28;20033;-78
2021/04/15 11:44:05;;;;;;;7.40;2.05;;;15.20;14.90;;;;;;5034686;28;20045;-79
2021/04/15 11:46:46;;;;;;;5.65;2.13;;;14.80;15.20;;;;;;5036725;28;20056;-78
2021/04/15 11:49:26;;;;;;;4.63;1.90;;;15.40;14.80;;;;;;5026572;28;20115;-77
2021/04/15 11:51:54;;;;;;;5.18;1.83;;;14.50;14.60;;;;;;5020085;28;20820;-79
2021/04/15 11:54:39;;;;;;;5.60;2.08;;;15.10;15.10;;;;;;5036413;28;20061;-76
2021/04/15 11:57:20;;;;;;;6.50;2.10;;;14.80;15.20;;;;;;5027185;28;20085;-77
2021/04/15 12:00:09;;;;;;;3.67;2.17;;;15.00;15.30;;;;;;5024575;28;20072;-79
2021/04/15 12:02:45;;;;;;;5.35;2.28;;;15.40;14.10;;;;;;5012093;28;20044;-78
2021/04/15 12:05:20;;;;;;;4.00;2.25;;;14.70;14.30;;;;;;5027432;28;20049;-78
2021/04/15 12:07:48;;;;;;;;;;;15.40;13.20;;;;;;5030062;28;20045;-78
2021/04/15 12:10:15;;;;;;;4.05;1.98;;;15.90;14.20;;;;;;5029110;28;19913;-78
2021/04/15 12:12:45;;;;;;;6.63;2.45;;;15.60;12.70;;;;;;5037868;28;20038;-82
2021/04/15 12:15:16;;;;;;;3.55;1.50;;;15.60;12.30;;;;;;5026802;28;20049;-82
2021/04/15 12:17:58;;;;;;;9.10;2.40;;;16.80;12.80;;;;;;5025946;28;20067;-83
2021/04/15 12:20:38;;;;;;;2.30;1.45;;;16.60;10.80;;;;;;5021293;28;20102;-83
2021/04/15 12:23:22;;;;;;;5.75;2.10;;;16.20;11.40;;;;;;5019687;28;20026;-81
2021/04/15 12:26:00;;;;;;;3.38;1.40;;;16.90;11.00;;;;;;5027708;28;20045;-79
2021/04/15 12:28:46;;;;;;;3.83;1.88;;;16.00;11.80;;;;;;5021229;28;20093;-79
2021/04/15 12:31:22;;;;;;;7.15;2.42;;;16.10;11.40;;;;;;5030012;28;20793;-78
2021/04/15 12:34:09;;;;;;;4.38;2.35;;;15.70;9.90;;;;;;5019351;28;20041;-78
2021/04/15 12:36:40;;;;;;;3.42;2.13;;;16.50;11.40;;;;;;5030822;28;20046;-78
2021/04/15 12:39:12;;;;;;;7.03;2.20;;;15.90;11.50;;;;;;5023822;28;20038;-78
2021/04/15 12:41:38;;;;;;;3.70;1.70;;;14.50;13.00;;;;;;5036296;28;20037;-78
2021/04/15 12:44:22;;;;;;;6.63;1.80;;;14.80;13.40;;;;;;5037364;28;20041;-78
2021/04/15 12:46:49;;;;;;;7.68;2.45;;;14.40;13.00;;;;;;5025047;28;20048;-78
2021/04/15 12:49:22;;;;;;;4.05;2.00;;;13.90;14.60;;;;;;5026395;28;20127;-78
2021/04/15 12:51:51;;;;;;;8.07;2.50;;;12.80;14.90;;;;;;5022982;28;20055;-78
2021/04/15 12:54:21;;;;;;;5.45;2.95;;;12.80;16.00;;;;;;5027410;28;20408;-78
2021/04/15 12:56:53;;;;;;;5.07;2.00;;;13.90;15.50;;;;;;5027470;28;20048;-78
2021/04/15 12:59:39;;;;;;;5.07;2.40;;;14.60;14.20;;;;;;5032482;28;20034;-79
2021/04/15 13:02:21;;;;;;;2.05;1.80;;;15.60;11.20;;;;;;5036754;28;20041;-78
2021/04/15 13:05:12;;;;;;;9.00;2.33;;;16.30;10.10;;;;;;5024059;28;20416;-80
2021/04/15 13:07:42;;;;;;;6.63;2.38;;;15.40;11.30;;;;;;5000336;28;20060;-77
2021/04/15 13:10:13;;;;;;;6.05;3.13;;;14.00;13.80;;;;;;5023278;28;20048;-77
2021/04/15 13:12:50;;;;;;;4.13;2.58;;;12.90;15.70;;;;;;5022118;28;20246;-78
2021/04/15 13:15:45;;;;;;;3.72;2.40;;;12.40;17.00;;;;;;5018518;28;20137;-78
2021/04/15 13:18:33;;;;;;;5.55;2.40;;;12.00;18.10;;;;;;5013000;28;20057;-78
2021/04/15 13:21:11;;;;;;;7.72;2.45;;;11.00;21.80;;;;;;5030590;28;20037;-78
2021/04/15 13:23:40;;;;;;;4.75;2.50;;;10.00;25.00;;;;;;5019150;28;20034;-78
2021/04/15 13:26:06;;;;;;;6.70;2.65;;;9.50;27.70;;;;;;5034829;28;20045;-79
2021/04/15 13:28:41;;;;;;;4.28;2.35;;;9.60;27.90;;;;;;5022517;28;20570;-78
2021/04/15 13:31:07;;;;;;;4.20;2.38;;;9.20;31.20;;;;;;5025635;28;20034;-78
2021/04/15 13:33:34;;;;;;;4.72;2.58;;;9.20;31.50;;;;;;5022614;28;20044;-78
2021/04/15 13:36:03;;;;;;;4.38;2.28;;;8.90;32.60;;;;;;5024893;28;20104;-78
2021/04/15 13:38:32;;;;;;;4.05;2.28;;;8.60;32.70;;;;;;5026240;28;20030;-78
2021/04/15 13:41:09;;;;;;;6.10;2.97;;;8.50;30.80;;;;;;5024808;28;20109;-79
2021/04/15 13:43:48;;;;;;;9.10;2.75;;;8.60;30.70;;;;;;5021387;28;20040;-84
2021/04/15 13:46:23;;;;;;;3.42;2.22;;;8.70;30.40;;;;;;5019841;28;20051;-81